createdAt,value
2022-08-16T17:40:40.312Z,7.93
2022-08-16T17:43:15.030Z,6.60
2022-08-16T17:45:42.851Z,7.85
2022-08-16T17:48:09.669Z,7.22
2022-08-16T17:50:37.534Z,8.27
2022-08-16T17:53:05.047Z,8.33
2022-08-16T17:55:36.583Z,8.23
2022-08-16T17:58:09.874Z,8.25
2022-08-16T18:00:52.303Z,8.68
2022-08-16T18:04:03.219Z,8.27
2022-08-16T18:06:17.807Z,8.27
2022-08-16T18:11:35.332Z,8.60
2022-08-16T18:14:01.904Z,7.70
2022-08-16T18:16:28.560Z,8.30
2022-08-16T18:18:55.147Z,8.55
2022-08-16T18:21:40.841Z,8.50
2022-08-16T18:24:08.669Z,7.88
2022-08-16T18:26:35.672Z,8.30
2022-08-16T18:29:02.287Z,8.35
2022-08-16T18:31:28.817Z,9.77
2022-08-16T18:33:55.701Z,8.50
2022-08-16T18:36:23.357Z,7.88
2022-08-16T18:38:51.438Z,8.60
2022-08-16T18:41:19.539Z,9.63
2022-08-16T18:44:23.135Z,8.13
2022-08-16T18:46:32.706Z,9.32
2022-08-16T18:48:59.484Z,9.23
2022-08-16T18:51:26.033Z,9.35
2022-08-16T18:53:53.365Z,9.20
2022-08-16T18:56:19.950Z,8.60
2022-08-16T18:58:46.506Z,8.60
2022-08-16T19:01:13.213Z,8.43
2022-08-16T19:03:42.200Z,11.43
2022-08-16T19:08:42.146Z,9.30
2022-08-16T19:11:14.022Z,9.63
2022-08-16T19:13:45.541Z,9.20
2022-08-16T19:16:13.593Z,8.57
2022-08-16T19:18:40.999Z,8.57
2022-08-16T19:21:09.759Z,9.18
2022-08-16T19:23:37.423Z,9.27
2022-08-16T19:26:20.243Z,11.38
2022-08-16T19:31:32.944Z,9.80
2022-08-16T19:34:00.818Z,9.55
2022-08-16T19:36:36.136Z,11.18
2022-08-16T19:39:09.217Z,9.30
2022-08-16T19:41:38.625Z,8.93
2022-08-16T19:44:06.020Z,9.32
2022-08-16T19:46:33.117Z,10.00
2022-08-16T19:48:59.817Z,8.70
2022-08-16T19:51:26.498Z,9.13
2022-08-16T19:53:53.054Z,8.70
2022-08-16T19:56:22.987Z,9.18
2022-08-16T19:59:16.241Z,8.15
2022-08-16T20:01:41.890Z,9.55
2022-08-16T20:04:12.291Z,10.45
2022-08-16T20:06:39.785Z,9.85
2022-08-16T20:09:06.895Z,9.60
2022-08-16T20:11:34.882Z,9.55
2022-08-16T20:14:01.943Z,8.17
2022-08-16T20:16:28.503Z,9.10
2022-08-16T20:18:55.032Z,9.55
2022-08-16T20:21:21.725Z,8.40
2022-08-16T20:23:48.290Z,9.65
2022-08-16T20:26:14.837Z,12.57
2022-08-16T20:28:54.301Z,9.40
2022-08-16T20:31:25.841Z,10.25
2022-08-16T20:33:54.234Z,9.35
2022-08-16T20:36:20.945Z,8.98
2022-08-16T20:38:48.447Z,9.82
2022-08-16T20:41:16.681Z,9.68
2022-08-16T20:43:45.525Z,9.43
2022-08-16T20:46:13.603Z,9.10
2022-08-16T20:48:40.213Z,9.60
2022-08-16T20:51:10.611Z,10.65
2022-08-16T20:53:42.359Z,8.75
2022-08-16T20:56:10.747Z,10.15
2022-08-16T20:58:38.307Z,10.93
2022-08-16T21:01:05.868Z,11.02
2022-08-16T21:03:32.760Z,11.27
2022-08-16T21:06:02.031Z,10.38
2022-08-16T21:08:51.551Z,10.52
2022-08-16T21:11:16.335Z,10.27
2022-08-16T21:13:43.163Z,9.57
2022-08-16T21:16:10.290Z,10.63
2022-08-16T21:18:36.871Z,10.32
2022-08-16T21:21:03.519Z,10.27
2022-08-16T21:23:30.123Z,10.38
2022-08-16T21:25:58.794Z,9.93
2022-08-16T21:28:40.239Z,10.55
2022-08-16T21:31:13.327Z,11.00
2022-08-16T21:33:40.905Z,12.35
2022-08-16T21:36:08.060Z,10.00
2022-08-16T21:38:34.618Z,9.82
2022-08-16T21:41:03.246Z,9.32
2022-08-16T21:43:33.507Z,11.20
2022-08-16T21:46:05.441Z,10.55
2022-08-16T21:48:34.983Z,10.57
2022-08-16T21:51:11.099Z,9.25
2022-08-16T21:53:38.382Z,9.98
2022-08-16T21:56:06.016Z,10.00
2022-08-16T21:58:32.721Z,9.98
2022-08-16T22:01:00.996Z,10.52
2022-08-16T22:03:27.998Z,11.27
2022-08-16T22:06:12.154Z,11.40
2022-08-16T22:08:49.323Z,10.90
2022-08-16T22:11:17.875Z,12.40
2022-08-16T22:13:51.501Z,11.35
2022-08-16T22:16:33.926Z,10.70
2022-08-16T22:19:01.236Z,9.23
2022-08-16T22:21:28.879Z,10.05
2022-08-16T22:23:57.670Z,10.73
2022-08-16T22:26:40.906Z,10.88
2022-08-16T22:29:12.913Z,10.18
2022-08-16T22:31:40.892Z,10.63
2022-08-16T22:34:08.966Z,10.63
2022-08-16T22:36:36.132Z,11.10
2022-08-16T22:39:06.983Z,11.15
2022-08-16T22:41:35.157Z,10.50
2022-08-16T22:44:04.587Z,10.70
2022-08-16T22:46:33.259Z,10.25
2022-08-16T22:48:59.766Z,11.13
2022-08-16T22:51:28.374Z,9.65
2022-08-16T22:53:56.683Z,11.10
2022-08-16T22:56:24.419Z,11.80
2022-08-16T22:58:51.057Z,12.27
2022-08-16T23:01:19.547Z,11.30
2022-08-16T23:03:46.210Z,10.85
2022-08-16T23:06:13.117Z,12.27
2022-08-16T23:08:41.617Z,10.27
2022-08-16T23:11:11.388Z,11.00
2022-08-16T23:13:51.530Z,11.82
2022-08-16T23:16:32.177Z,11.57
2022-08-16T23:19:08.016Z,11.93
2022-08-16T23:21:37.409Z,10.65
2022-08-16T23:24:05.362Z,12.23
2022-08-16T23:26:44.498Z,11.60
2022-08-16T23:29:23.665Z,11.30
2022-08-16T23:31:58.102Z,12.82
2022-08-16T23:34:26.913Z,11.05
2022-08-16T23:36:53.735Z,11.55
2022-08-16T23:39:20.304Z,11.45
2022-08-16T23:41:46.853Z,11.18
2022-08-16T23:44:55.358Z,11.25
2022-08-16T23:47:00.023Z,11.63
2022-08-16T23:49:59.216Z,11.25
2022-08-16T23:52:13.146Z,10.15
2022-08-16T23:54:39.670Z,10.50
2022-08-16T23:57:06.414Z,10.13
2022-08-16T23:59:52.184Z,10.23
